TTDPORTLAND-TROUTDALE
METARs for airports near TTD, sorted by distance:
N 0 nm 38' KTTD 222153Z 27008KT 10SM CLR 08/03 A3044
W 8 nm 30' KPDX 222353Z 29007KT 10SM FEW100 FEW250 09/03 A3043
W 11 nm 28' KVUO 222353Z 29007KT 10SM CLR 09/03 A3043
W 23 nm 207' KHIO 222353Z 30003KT 10SM CLR 09/04 A3041
NW 23 nm 58' KSPB 222353Z 00000KT 10SM CLR 09/03 A3043
SW 23 nm 199' KUAO 222353Z 03008KT 10SM CLR 10/03 A3041
SW 37 nm 162' KMMV 222353Z 35004KT 10SM CLR 10/04 A3041
NW 39 nm 20' KKLS 222356Z 36006KT 10SM CLR 09/04 A3044
SW 46 nm 213' KSLE 222356Z 33008KT 10SM CLR 09/04 A3040
E 51 nm 246' KDLS 222353Z 00000KT 10SM OVC009 05/01 A3056
W 60 nm 39' KTMK 222330Z 29003KT 10SM CLR 12/07 A3036
NW 71 nm 14' KAST 222355Z 06008KT 10SM CLR 09/04 A3037
N 71 nm 177' KCLS 222355Z 03007KT 10SM CLR 07/04 A3048
SW 73 nm 249' KCVO 222356Z 02006KT 10SM CLR 07/03 A3040
N 87 nm 207' KOLM 222354Z 05007KT 10SM CLR 08/03 A3049
SW 91 nm 160' KONP 222355Z 00000KT 10SM CLR 12/04 A3034
N 92 nm 301' KGRF 222258Z 04004KT 10SM SCT010 06/02 A3050
S 92 nm 373' KEUG 222354Z 36011KT 10SM OVC010 06/03 A3039
N 93 nm 537' KPLU 222335Z 00000KT 7SM OVC004 03/03 A3051
SE 94 nm 3081' KRDM 222356Z 33005KT 10SM CLR 12/M04 A3043
N 95 nm 322' KTCM 222258Z 07004KT 10SM FEW011 05/05 A3051
NE 98 nm 1098' KYKM 222353Z 00000KT 10SM CLR 05/M03 A3053
TAFs for airports near TTD, sorted by distance:
N 0 nm 38' KTTD TAF KTTD 222331Z 2300/2324 27007KT P6SM SKC
  FM230100 08006KT P6SM SKC
  FM230500 10012G20KT P6SM SKC
  FM231200 10022G31KT P6SM SKC
  FM231800 10010KT P6SM FEW250
  AMD NOT SKED
W 8 nm 30' KPDX TAF KPDX 222331Z 2300/2324 32005KT P6SM SKC
  FM231400 00000KT 6SM BR FEW003
  FM232100 VRB03KT P6SM FEW250
W 23 nm 207' KHIO TAF KHIO 222331Z 2300/2324 02004KT P6SM SKC
  FM230700 35002KT 1SM BR SCT002 BKN009
  FM231100 00000KT 1/2SM FG OVC002
  FM231800 VRB02KT 6SM BR FEW002
SW 23 nm 199' KUAO KUAO 222331Z 2300/2324 02005KT P6SM SKC
  FM230900 36002KT 5SM BR MIFG FEW007 BKN015
  FM231400 00000KT 1/2SM FG OVC002
  FM232000 00000KT P6SM FEW002
SW 46 nm 213' KSLE TAF KSLE 222331Z 2300/2324 36007KT P6SM SKC
  FM231100 35004KT 6SM BR MIFG BKN015
  TEMPO 2314/2318 1SM BR OVC002
  FM232000 VRB02KT P6SM SCT002
E 51 nm 246' KDLS TAF
  AMD KDLS 222344Z 2300/2324 VRB03KT P6SM OVC009
  FM230600 10003KT 3SM BR OVC008
  FM230900 10003KT 1SM BR OVC005
  FM231700 VRB03KT 3SM BR OVC008
  FM232100 VRB03KT 6SM BR BKN015
NW 71 nm 14' KAST TAF KAST 222331Z 2300/2324 06008KT P6SM SKC
N 87 nm 207' KOLM TAF KOLM 222320Z 2300/2324 05006KT P6SM SCT010 SCT200
  FM230500 00000KT 1/2SM FG VV001
  FM231000 00000KT 1/4SM FG VV001
  FM232000 15003KT 4SM BR OVC007
SW 91 nm 160' KONP TAF KONP 222331Z 2300/2324 03006KT P6SM SKC
  FM230200 11011G20KT P6SM SKC
N 92 nm 301' KGRF TAF
  AMD KGRF 222256Z 2222/2403 VRB05KT 9999 SCT010 QNH3050INS
  BECMG 2302/2303 VRB05KT 9999 SCT020 QNH3049INS
  BECMG 2309/2310 VRB05KT 3200 BR OVC015 QNH3047INS
  TEMPO 2313/2316 VRB02KT 1600 BR OVC010
  BECMG 2318/2319 02005KT 9999 NSW SCT020 QNH3040INS
  BECMG 2322/2323 02005KT 9999 SCT020 QNH3040INS TX07/2221Z TN02/2316Z
S 92 nm 373' KEUG TAF KEUG 222331Z 2300/2324 01008KT P6SM OVC012
  FM230200 02008KT P6SM SCT015
  FM230800 35004KT 3SM BR SCT004 BKN010
  FM231200 00000KT 1/2SM FG OVC002
  FM232200 VRB02KT P6SM SCT002
SE 94 nm 3081' KRDM TAF KRDM 222320Z 2300/2324 VRB04KT P6SM FEW250
N 95 nm 322' KTCM TAF KTCM 222100Z 2221/2403 VRB03KT 9999 OVC005 QNH3049INS
  BECMG 2222/2223 02006KT 9999 FEW010 QNH3044INS
  BECMG 2305/2306 01004KT 3200 BR SCT001 QNH3036INS
  TEMPO 2309/2315 0600 FG
  BECMG 2317/2318 01006KT 9999 NSW OVC003 QNH3030INS
  BECMG 2323/2324 VRB06KT 9999 SCT010 QNH3030INS TX07/2222Z TN00/2314Z
NE 98 nm 1098' KYKM TAF KYKM 222320Z 2300/2324 VRB03KT P6SM FEW250
  FM230800 28003KT 4SM BR SCT006
  FM231400 29003KT 1SM BR BKN006
  FM232000 VRB03KT 6SM BR BKN025

Shortcut to this page: http://wxbay.com.

Data may contain errors.